Notre-Dame-Du-Nord, Canada
Current Conditions -  °F | °C
As of 4:00 AM on Monday 20 Oct 2014 (Local Time) from CYXR Reporting Station
Light Rain Light Rain  
Wind Chill: 29°   Ceiling: 2300
Heat Index: 34°   Visibility: 9mi
Dew Point: 32°   Wind: 6mph
Humidity: 93%   Direction: 140°SE
Pressure: 29.85"   Gusts: NA
Location:  47.6°N, 79.65°W
Report Text: CYXR 200800Z AUTO 14005KT 9SM -RA OVC023 01/00 A2985 RMK SLP119
Loading
Personal Weather Stations






























Interactive Weather Map
Tropical Storm Tracking
New forecast layout! Learn more

10-Day Weather Forecast

Advertisements
Track Severe Weather on mobile